sensor_id;sensor_type;location;lat;lon;timestamp;P1;durP1;ratioP1;P2;durP2;ratioP2
56429;SDS011;42332;52.136;20.666;2023-03-23T00:00:50;34.10;;;16.33;;
56429;SDS011;42332;52.136;20.666;2023-03-23T00:03:16;37.35;;;16.83;;
56429;SDS011;42332;52.136;20.666;2023-03-23T00:05:42;37.60;;;16.25;;
56429;SDS011;42332;52.136;20.666;2023-03-23T00:08:15;39.83;;;16.98;;
56429;SDS011;42332;52.136;20.666;2023-03-23T00:10:47;40.33;;;17.25;;
56429;SDS011;42332;52.136;20.666;2023-03-23T00:13:14;31.58;;;15.13;;
56429;SDS011;42332;52.136;20.666;2023-03-23T00:15:44;37.47;;;16.20;;
56429;SDS011;42332;52.136;20.666;2023-03-23T00:18:10;31.50;;;15.35;;
56429;SDS011;42332;52.136;20.666;2023-03-23T00:20:45;35.13;;;15.82;;
56429;SDS011;42332;52.136;20.666;2023-03-23T00:23:14;30.27;;;15.32;;
56429;SDS011;42332;52.136;20.666;2023-03-23T00:25:47;29.52;;;13.60;;
56429;SDS011;42332;52.136;20.666;2023-03-23T00:28:13;33.03;;;14.52;;
56429;SDS011;42332;52.136;20.666;2023-03-23T00:30:40;34.25;;;14.30;;
56429;SDS011;42332;52.136;20.666;2023-03-23T00:33:07;34.90;;;15.05;;
56429;SDS011;42332;52.136;20.666;2023-03-23T00:35:33;35.80;;;13.98;;
56429;SDS011;42332;52.136;20.666;2023-03-23T00:38:01;32.38;;;13.90;;
56429;SDS011;42332;52.136;20.666;2023-03-23T00:40:27;32.13;;;15.23;;
56429;SDS011;42332;52.136;20.666;2023-03-23T00:42:52;38.35;;;14.02;;
56429;SDS011;42332;52.136;20.666;2023-03-23T00:45:18;37.03;;;14.50;;
56429;SDS011;42332;52.136;20.666;2023-03-23T00:47:43;40.50;;;13.88;;
56429;SDS011;42332;52.136;20.666;2023-03-23T00:50:11;31.35;;;14.32;;
56429;SDS011;42332;52.136;20.666;2023-03-23T00:52:37;32.97;;;13.55;;
56429;SDS011;42332;52.136;20.666;2023-03-23T00:55:03;32.67;;;13.90;;
56429;SDS011;42332;52.136;20.666;2023-03-23T00:57:29;27.67;;;12.77;;
56429;SDS011;42332;52.136;20.666;2023-03-23T00:59:54;34.85;;;14.40;;
56429;SDS011;42332;52.136;20.666;2023-03-23T01:02:19;32.78;;;12.77;;
56429;SDS011;42332;52.136;20.666;2023-03-23T01:04:49;33.88;;;12.80;;
56429;SDS011;42332;52.136;20.666;2023-03-23T01:07:17;32.20;;;13.80;;
56429;SDS011;42332;52.136;20.666;2023-03-23T01:09:43;29.88;;;13.05;;
56429;SDS011;42332;52.136;20.666;2023-03-23T01:12:10;27.38;;;12.73;;
56429;SDS011;42332;52.136;20.666;2023-03-23T01:14:36;29.52;;;12.55;;
56429;SDS011;42332;52.136;20.666;2023-03-23T01:17:01;34.80;;;13.45;;
56429;SDS011;42332;52.136;20.666;2023-03-23T01:19:27;24.60;;;11.73;;
56429;SDS011;42332;52.136;20.666;2023-03-23T01:21:52;28.23;;;11.75;;
56429;SDS011;42332;52.136;20.666;2023-03-23T01:24:18;25.65;;;11.20;;
56429;SDS011;42332;52.136;20.666;2023-03-23T01:26:43;26.05;;;12.02;;
56429;SDS011;42332;52.136;20.666;2023-03-23T01:29:08;32.97;;;13.20;;
56429;SDS011;42332;52.136;20.666;2023-03-23T01:31:34;31.80;;;12.30;;
56429;SDS011;42332;52.136;20.666;2023-03-23T01:34:01;33.50;;;12.07;;
56429;SDS011;42332;52.136;20.666;2023-03-23T01:36:27;31.42;;;11.85;;
56429;SDS011;42332;52.136;20.666;2023-03-23T01:38:57;30.38;;;11.63;;
56429;SDS011;42332;52.136;20.666;2023-03-23T01:41:23;24.02;;;10.20;;
56429;SDS011;42332;52.136;20.666;2023-03-23T01:46:50;23.85;;;10.88;;
56429;SDS011;42332;52.136;20.666;2023-03-23T01:49:19;22.75;;;10.32;;
56429;SDS011;42332;52.136;20.666;2023-03-23T01:51:48;22.63;;;9.88;;
56429;SDS011;42332;52.136;20.666;2023-03-23T01:54:15;27.80;;;11.55;;
56429;SDS011;42332;52.136;20.666;2023-03-23T01:57:07;29.73;;;11.68;;
56429;SDS011;42332;52.136;20.666;2023-03-23T01:59:52;28.00;;;9.88;;
56429;SDS011;42332;52.136;20.666;2023-03-23T02:02:19;28.80;;;11.27;;
56429;SDS011;42332;52.136;20.666;2023-03-23T02:04:46;26.23;;;11.32;;
56429;SDS011;42332;52.136;20.666;2023-03-23T02:07:11;24.23;;;11.13;;
56429;SDS011;42332;52.136;20.666;2023-03-23T02:09:37;27.20;;;12.20;;
56429;SDS011;42332;52.136;20.666;2023-03-23T02:12:03;25.27;;;10.65;;
56429;SDS011;42332;52.136;20.666;2023-03-23T02:14:28;24.85;;;11.10;;
56429;SDS011;42332;52.136;20.666;2023-03-23T02:27:42;26.65;;;11.35;;
56429;SDS011;42332;52.136;20.666;2023-03-23T02:33:16;26.25;;;10.98;;
56429;SDS011;42332;52.136;20.666;2023-03-23T02:35:46;32.83;;;11.20;;
56429;SDS011;42332;52.136;20.666;2023-03-23T02:38:22;24.27;;;11.35;;
56429;SDS011;42332;52.136;20.666;2023-03-23T02:40:53;27.65;;;12.18;;
56429;SDS011;42332;52.136;20.666;2023-03-23T02:43:20;26.58;;;11.00;;
56429;SDS011;42332;52.136;20.666;2023-03-23T02:45:47;31.25;;;11.60;;
56429;SDS011;42332;52.136;20.666;2023-03-23T02:48:15;30.30;;;12.18;;
56429;SDS011;42332;52.136;20.666;2023-03-23T02:50:44;25.95;;;11.55;;
56429;SDS011;42332;52.136;20.666;2023-03-23T02:53:11;27.58;;;11.73;;
56429;SDS011;42332;52.136;20.666;2023-03-23T02:55:39;27.88;;;11.85;;
56429;SDS011;42332;52.136;20.666;2023-03-23T02:58:07;27.25;;;11.30;;
56429;SDS011;42332;52.136;20.666;2023-03-23T03:00:36;28.92;;;12.18;;
56429;SDS011;42332;52.136;20.666;2023-03-23T03:03:03;28.75;;;10.88;;
56429;SDS011;42332;52.136;20.666;2023-03-23T03:16:35;22.60;;;10.60;;
56429;SDS011;42332;52.136;20.666;2023-03-23T03:19:11;24.08;;;11.30;;
56429;SDS011;42332;52.136;20.666;2023-03-23T03:21:41;23.90;;;10.23;;
56429;SDS011;42332;52.136;20.666;2023-03-23T03:24:08;32.55;;;10.82;;
56429;SDS011;42332;52.136;20.666;2023-03-23T03:26:36;29.88;;;12.05;;
56429;SDS011;42332;52.136;20.666;2023-03-23T03:29:03;20.95;;;10.20;;
56429;SDS011;42332;52.136;20.666;2023-03-23T03:31:31;26.70;;;10.98;;
56429;SDS011;42332;52.136;20.666;2023-03-23T03:33:57;23.90;;;11.13;;
56429;SDS011;42332;52.136;20.666;2023-03-23T03:36:27;26.23;;;11.35;;
56429;SDS011;42332;52.136;20.666;2023-03-23T03:39:00;28.55;;;11.48;;
56429;SDS011;42332;52.136;20.666;2023-03-23T03:41:29;23.33;;;9.70;;
56429;SDS011;42332;52.136;20.666;2023-03-23T03:43:55;29.50;;;11.23;;
56429;SDS011;42332;52.136;20.666;2023-03-23T03:46:20;26.05;;;11.45;;
56429;SDS011;42332;52.136;20.666;2023-03-23T03:48:45;28.23;;;11.38;;
56429;SDS011;42332;52.136;20.666;2023-03-23T03:51:11;24.73;;;11.73;;
56429;SDS011;42332;52.136;20.666;2023-03-23T03:53:36;22.58;;;10.77;;
56429;SDS011;42332;52.136;20.666;2023-03-23T03:56:02;25.52;;;11.27;;
56429;SDS011;42332;52.136;20.666;2023-03-23T03:58:27;26.05;;;11.43;;
56429;SDS011;42332;52.136;20.666;2023-03-23T04:00:57;28.00;;;11.50;;
56429;SDS011;42332;52.136;20.666;2023-03-23T04:03:23;27.25;;;11.15;;
56429;SDS011;42332;52.136;20.666;2023-03-23T04:05:50;29.25;;;11.30;;
56429;SDS011;42332;52.136;20.666;2023-03-23T04:08:16;25.73;;;10.77;;
56429;SDS011;42332;52.136;20.666;2023-03-23T04:10:41;24.73;;;10.95;;
56429;SDS011;42332;52.136;20.666;2023-03-23T04:13:06;30.48;;;10.80;;
56429;SDS011;42332;52.136;20.666;2023-03-23T04:15:32;24.77;;;10.90;;
56429;SDS011;42332;52.136;20.666;2023-03-23T04:17:57;29.05;;;11.23;;
56429;SDS011;42332;52.136;20.666;2023-03-23T04:20:23;30.65;;;11.35;;
56429;SDS011;42332;52.136;20.666;2023-03-23T04:22:50;25.85;;;11.32;;
56429;SDS011;42332;52.136;20.666;2023-03-23T04:25:17;25.33;;;11.07;;
56429;SDS011;42332;52.136;20.666;2023-03-23T04:27:45;20.95;;;10.07;;
56429;SDS011;42332;52.136;20.666;2023-03-23T04:30:17;23.77;;;11.07;;
56429;SDS011;42332;52.136;20.666;2023-03-23T04:32:46;25.77;;;11.93;;
56429;SDS011;42332;52.136;20.666;2023-03-23T04:35:20;28.27;;;11.40;;
56429;SDS011;42332;52.136;20.666;2023-03-23T04:37:46;22.02;;;10.10;;
56429;SDS011;42332;52.136;20.666;2023-03-23T04:40:12;25.33;;;10.70;;
56429;SDS011;42332;52.136;20.666;2023-03-23T04:42:40;29.17;;;10.63;;
56429;SDS011;42332;52.136;20.666;2023-03-23T04:45:12;24.83;;;10.57;;
56429;SDS011;42332;52.136;20.666;2023-03-23T04:47:39;27.20;;;11.52;;
56429;SDS011;42332;52.136;20.666;2023-03-23T04:50:06;24.38;;;10.57;;
56429;SDS011;42332;52.136;20.666;2023-03-23T04:52:36;23.20;;;10.77;;
56429;SDS011;42332;52.136;20.666;2023-03-23T04:55:10;19.30;;;9.95;;
56429;SDS011;42332;52.136;20.666;2023-03-23T04:57:37;23.45;;;10.57;;
56429;SDS011;42332;52.136;20.666;2023-03-23T05:00:03;21.40;;;10.27;;
56429;SDS011;42332;52.136;20.666;2023-03-23T05:02:34;26.40;;;10.50;;
56429;SDS011;42332;52.136;20.666;2023-03-23T05:05:07;20.27;;;9.73;;
56429;SDS011;42332;52.136;20.666;2023-03-23T05:07:35;24.55;;;9.98;;
56429;SDS011;42332;52.136;20.666;2023-03-23T05:10:01;25.73;;;10.00;;
56429;SDS011;42332;52.136;20.666;2023-03-23T05:12:27;21.92;;;10.13;;
56429;SDS011;42332;52.136;20.666;2023-03-23T05:14:52;24.30;;;10.85;;
56429;SDS011;42332;52.136;20.666;2023-03-23T05:17:17;23.58;;;10.48;;
56429;SDS011;42332;52.136;20.666;2023-03-23T05:19:43;23.63;;;10.73;;
56429;SDS011;42332;52.136;20.666;2023-03-23T05:22:12;22.42;;;10.30;;
56429;SDS011;42332;52.136;20.666;2023-03-23T05:24:39;22.55;;;9.18;;
56429;SDS011;42332;52.136;20.666;2023-03-23T05:27:05;31.73;;;11.55;;
56429;SDS011;42332;52.136;20.666;2023-03-23T05:29:32;32.75;;;14.15;;
56429;SDS011;42332;52.136;20.666;2023-03-23T05:32:00;27.63;;;13.13;;
56429;SDS011;42332;52.136;20.666;2023-03-23T05:34:27;25.77;;;11.73;;
56429;SDS011;42332;52.136;20.666;2023-03-23T05:36:54;21.17;;;11.43;;
56429;SDS011;42332;52.136;20.666;2023-03-23T05:39:20;22.15;;;11.15;;
56429;SDS011;42332;52.136;20.666;2023-03-23T05:41:46;25.92;;;10.93;;
56429;SDS011;42332;52.136;20.666;2023-03-23T05:44:11;26.20;;;11.43;;
56429;SDS011;42332;52.136;20.666;2023-03-23T05:46:38;24.73;;;10.23;;
56429;SDS011;42332;52.136;20.666;2023-03-23T05:49:04;18.60;;;9.23;;
56429;SDS011;42332;52.136;20.666;2023-03-23T05:51:29;24.95;;;9.77;;
56429;SDS011;42332;52.136;20.666;2023-03-23T05:53:54;23.80;;;9.88;;
56429;SDS011;42332;52.136;20.666;2023-03-23T05:56:20;19.52;;;9.43;;
56429;SDS011;42332;52.136;20.666;2023-03-23T05:58:46;18.75;;;8.80;;
56429;SDS011;42332;52.136;20.666;2023-03-23T06:01:11;20.40;;;8.77;;
56429;SDS011;42332;52.136;20.666;2023-03-23T06:03:39;18.13;;;8.02;;
56429;SDS011;42332;52.136;20.666;2023-03-23T06:06:04;19.20;;;8.65;;
56429;SDS011;42332;52.136;20.666;2023-03-23T06:08:30;21.77;;;9.73;;
56429;SDS011;42332;52.136;20.666;2023-03-23T06:10:56;20.13;;;8.70;;
56429;SDS011;42332;52.136;20.666;2023-03-23T06:13:21;22.73;;;8.52;;
56429;SDS011;42332;52.136;20.666;2023-03-23T06:15:48;20.80;;;7.82;;
56429;SDS011;42332;52.136;20.666;2023-03-23T06:18:13;21.85;;;8.85;;
56429;SDS011;42332;52.136;20.666;2023-03-23T06:20:39;18.15;;;8.02;;
56429;SDS011;42332;52.136;20.666;2023-03-23T06:23:05;16.67;;;8.27;;
56429;SDS011;42332;52.136;20.666;2023-03-23T06:25:31;19.23;;;8.48;;
56429;SDS011;42332;52.136;20.666;2023-03-23T06:27:57;23.38;;;9.40;;
56429;SDS011;42332;52.136;20.666;2023-03-23T06:30:22;28.15;;;13.57;;
56429;SDS011;42332;52.136;20.666;2023-03-23T06:32:48;22.70;;;10.68;;
56429;SDS011;42332;52.136;20.666;2023-03-23T06:35:14;23.88;;;11.77;;
56429;SDS011;42332;52.136;20.666;2023-03-23T06:37:40;23.10;;;9.18;;
56429;SDS011;42332;52.136;20.666;2023-03-23T06:40:06;22.20;;;9.00;;
56429;SDS011;42332;52.136;20.666;2023-03-23T06:42:32;17.15;;;8.32;;
56429;SDS011;42332;52.136;20.666;2023-03-23T06:44:58;20.92;;;8.38;;
56429;SDS011;42332;52.136;20.666;2023-03-23T06:47:25;18.58;;;7.60;;
56429;SDS011;42332;52.136;20.666;2023-03-23T06:49:51;19.67;;;7.72;;
56429;SDS011;42332;52.136;20.666;2023-03-23T06:52:17;22.90;;;8.43;;
56429;SDS011;42332;52.136;20.666;2023-03-23T06:54:42;18.45;;;7.55;;
56429;SDS011;42332;52.136;20.666;2023-03-23T06:57:08;13.75;;;7.32;;
56429;SDS011;42332;52.136;20.666;2023-03-23T06:59:33;20.52;;;7.45;;
56429;SDS011;42332;52.136;20.666;2023-03-23T07:01:59;25.80;;;8.07;;
56429;SDS011;42332;52.136;20.666;2023-03-23T07:04:24;20.83;;;7.60;;
56429;SDS011;42332;52.136;20.666;2023-03-23T07:06:49;17.40;;;7.43;;
56429;SDS011;42332;52.136;20.666;2023-03-23T07:09:15;17.40;;;8.07;;
56429;SDS011;42332;52.136;20.666;2023-03-23T07:11:40;17.98;;;8.55;;
56429;SDS011;42332;52.136;20.666;2023-03-23T07:14:06;18.08;;;8.50;;
56429;SDS011;42332;52.136;20.666;2023-03-23T07:16:31;22.20;;;8.73;;
56429;SDS011;42332;52.136;20.666;2023-03-23T07:18:57;18.95;;;8.52;;
56429;SDS011;42332;52.136;20.666;2023-03-23T07:21:23;20.80;;;7.60;;
56429;SDS011;42332;52.136;20.666;2023-03-23T07:23:48;17.02;;;8.05;;
56429;SDS011;42332;52.136;20.666;2023-03-23T07:26:13;25.20;;;8.63;;
56429;SDS011;42332;52.136;20.666;2023-03-23T07:28:39;22.02;;;8.85;;
56429;SDS011;42332;52.136;20.666;2023-03-23T07:31:05;23.10;;;9.57;;
56429;SDS011;42332;52.136;20.666;2023-03-23T07:33:33;21.05;;;8.15;;
56429;SDS011;42332;52.136;20.666;2023-03-23T07:35:59;17.00;;;8.20;;
56429;SDS011;42332;52.136;20.666;2023-03-23T07:38:26;16.75;;;7.65;;
56429;SDS011;42332;52.136;20.666;2023-03-23T07:40:52;18.08;;;7.55;;
56429;SDS011;42332;52.136;20.666;2023-03-23T07:43:18;16.58;;;7.50;;
56429;SDS011;42332;52.136;20.666;2023-03-23T07:45:44;16.60;;;7.47;;
56429;SDS011;42332;52.136;20.666;2023-03-23T07:48:10;15.63;;;7.13;;
56429;SDS011;42332;52.136;20.666;2023-03-23T07:50:35;18.13;;;6.47;;
56429;SDS011;42332;52.136;20.666;2023-03-23T07:53:02;20.38;;;7.38;;
56429;SDS011;42332;52.136;20.666;2023-03-23T07:55:28;16.55;;;7.38;;
56429;SDS011;42332;52.136;20.666;2023-03-23T07:57:53;17.65;;;7.97;;
56429;SDS011;42332;52.136;20.666;2023-03-23T08:00:19;17.73;;;7.43;;
56429;SDS011;42332;52.136;20.666;2023-03-23T08:02:48;14.20;;;6.97;;
56429;SDS011;42332;52.136;20.666;2023-03-23T08:05:18;19.15;;;7.07;;
56429;SDS011;42332;52.136;20.666;2023-03-23T08:07:45;11.30;;;5.10;;
56429;SDS011;42332;52.136;20.666;2023-03-23T08:10:12;17.05;;;6.50;;
56429;SDS011;42332;52.136;20.666;2023-03-23T08:12:38;16.15;;;6.57;;
56429;SDS011;42332;52.136;20.666;2023-03-23T08:15:07;17.05;;;6.80;;
56429;SDS011;42332;52.136;20.666;2023-03-23T08:17:34;19.00;;;6.05;;
56429;SDS011;42332;52.136;20.666;2023-03-23T08:20:00;17.10;;;6.30;;
56429;SDS011;42332;52.136;20.666;2023-03-23T08:22:26;12.98;;;6.22;;
56429;SDS011;42332;52.136;20.666;2023-03-23T08:24:53;14.38;;;6.07;;
56429;SDS011;42332;52.136;20.666;2023-03-23T08:27:19;13.88;;;6.35;;
56429;SDS011;42332;52.136;20.666;2023-03-23T08:29:44;12.98;;;5.68;;
56429;SDS011;42332;52.136;20.666;2023-03-23T08:32:10;12.02;;;5.88;;
56429;SDS011;42332;52.136;20.666;2023-03-23T08:34:36;16.15;;;7.15;;
56429;SDS011;42332;52.136;20.666;2023-03-23T08:37:02;15.55;;;6.28;;
56429;SDS011;42332;52.136;20.666;2023-03-23T08:39:28;16.85;;;6.88;;
56429;SDS011;42332;52.136;20.666;2023-03-23T08:41:55;17.75;;;6.30;;
56429;SDS011;42332;52.136;20.666;2023-03-23T08:44:20;14.75;;;6.20;;
56429;SDS011;42332;52.136;20.666;2023-03-23T08:46:45;13.95;;;5.60;;
56429;SDS011;42332;52.136;20.666;2023-03-23T08:49:11;16.75;;;6.88;;
56429;SDS011;42332;52.136;20.666;2023-03-23T08:51:36;16.90;;;6.03;;
56429;SDS011;42332;52.136;20.666;2023-03-23T08:54:02;16.23;;;7.22;;
56429;SDS011;42332;52.136;20.666;2023-03-23T08:56:27;17.70;;;6.43;;
56429;SDS011;42332;52.136;20.666;2023-03-23T08:58:53;21.30;;;6.57;;
56429;SDS011;42332;52.136;20.666;2023-03-23T09:01:18;11.18;;;5.63;;
56429;SDS011;42332;52.136;20.666;2023-03-23T09:03:44;13.93;;;5.88;;
56429;SDS011;42332;52.136;20.666;2023-03-23T09:06:09;14.80;;;5.93;;
56429;SDS011;42332;52.136;20.666;2023-03-23T09:08:37;12.30;;;5.90;;
56429;SDS011;42332;52.136;20.666;2023-03-23T09:11:05;19.70;;;6.05;;
56429;SDS011;42332;52.136;20.666;2023-03-23T09:13:35;12.07;;;5.57;;
56429;SDS011;42332;52.136;20.666;2023-03-23T09:16:01;16.13;;;5.90;;
56429;SDS011;42332;52.136;20.666;2023-03-23T09:18:28;13.05;;;5.15;;
56429;SDS011;42332;52.136;20.666;2023-03-23T09:20:53;15.70;;;5.38;;
56429;SDS011;42332;52.136;20.666;2023-03-23T09:23:19;12.02;;;4.70;;
56429;SDS011;42332;52.136;20.666;2023-03-23T09:25:45;9.30;;;4.22;;
56429;SDS011;42332;52.136;20.666;2023-03-23T09:28:11;12.07;;;4.07;;
56429;SDS011;42332;52.136;20.666;2023-03-23T09:30:37;11.20;;;4.43;;
56429;SDS011;42332;52.136;20.666;2023-03-23T09:33:04;15.73;;;4.60;;
56429;SDS011;42332;52.136;20.666;2023-03-23T09:35:31;9.35;;;3.40;;
56429;SDS011;42332;52.136;20.666;2023-03-23T09:37:57;13.50;;;4.00;;
56429;SDS011;42332;52.136;20.666;2023-03-23T09:40:42;9.65;;;3.95;;
56429;SDS011;42332;52.136;20.666;2023-03-23T09:51:00;10.15;;;3.80;;
56429;SDS011;42332;52.136;20.666;2023-03-23T09:53:30;15.13;;;4.93;;
56429;SDS011;42332;52.136;20.666;2023-03-23T09:56:02;12.77;;;3.55;;
56429;SDS011;42332;52.136;20.666;2023-03-23T09:58:35;9.90;;;3.83;;
56429;SDS011;42332;52.136;20.666;2023-03-23T10:03:52;11.68;;;4.35;;
56429;SDS011;42332;52.136;20.666;2023-03-23T10:06:23;11.35;;;4.63;;
56429;SDS011;42332;52.136;20.666;2023-03-23T10:08:49;11.90;;;4.22;;
56429;SDS011;42332;52.136;20.666;2023-03-23T10:11:26;10.95;;;4.25;;
56429;SDS011;42332;52.136;20.666;2023-03-23T10:22:34;11.93;;;3.25;;
56429;SDS011;42332;52.136;20.666;2023-03-23T10:25:08;6.63;;;3.22;;
56429;SDS011;42332;52.136;20.666;2023-03-23T10:30:38;10.10;;;3.92;;
56429;SDS011;42332;52.136;20.666;2023-03-23T10:33:16;6.13;;;3.03;;
56429;SDS011;42332;52.136;20.666;2023-03-23T10:35:52;8.07;;;3.53;;
56429;SDS011;42332;52.136;20.666;2023-03-23T10:38:26;11.38;;;3.50;;
56429;SDS011;42332;52.136;20.666;2023-03-23T10:40:58;10.73;;;4.07;;
56429;SDS011;42332;52.136;20.666;2023-03-23T10:43:25;10.05;;;3.88;;
56429;SDS011;42332;52.136;20.666;2023-03-23T10:46:02;9.82;;;3.63;;
56429;SDS011;42332;52.136;20.666;2023-03-23T10:48:51;8.18;;;3.63;;
56429;SDS011;42332;52.136;20.666;2023-03-23T10:51:19;8.25;;;3.72;;
56429;SDS011;42332;52.136;20.666;2023-03-23T10:53:51;7.22;;;3.42;;
56429;SDS011;42332;52.136;20.666;2023-03-23T10:56:34;9.98;;;3.78;;
56429;SDS011;42332;52.136;20.666;2023-03-23T11:01:53;6.57;;;2.78;;
56429;SDS011;42332;52.136;20.666;2023-03-23T11:04:20;4.75;;;2.20;;
56429;SDS011;42332;52.136;20.666;2023-03-23T11:06:48;5.18;;;2.00;;
56429;SDS011;42332;52.136;20.666;2023-03-23T11:09:18;4.65;;;2.05;;
56429;SDS011;42332;52.136;20.666;2023-03-23T11:11:49;5.50;;;1.90;;
56429;SDS011;42332;52.136;20.666;2023-03-23T11:14:24;7.15;;;2.05;;
56429;SDS011;42332;52.136;20.666;2023-03-23T11:16:53;6.65;;;2.20;;
56429;SDS011;42332;52.136;20.666;2023-03-23T11:19:24;9.18;;;1.90;;
56429;SDS011;42332;52.136;20.666;2023-03-23T11:21:52;3.95;;;1.42;;
56429;SDS011;42332;52.136;20.666;2023-03-23T11:24:21;7.80;;;1.73;;
56429;SDS011;42332;52.136;20.666;2023-03-23T11:26:47;8.70;;;2.20;;
56429;SDS011;42332;52.136;20.666;2023-03-23T11:31:52;7.43;;;2.95;;
56429;SDS011;42332;52.136;20.666;2023-03-23T11:34:48;5.80;;;2.08;;
56429;SDS011;42332;52.136;20.666;2023-03-23T11:37:35;5.15;;;1.48;;
56429;SDS011;42332;52.136;20.666;2023-03-23T11:42:46;4.95;;;2.10;;
56429;SDS011;42332;52.136;20.666;2023-03-23T11:45:21;9.15;;;2.30;;
56429;SDS011;42332;52.136;20.666;2023-03-23T11:50:43;5.57;;;1.83;;
56429;SDS011;42332;52.136;20.666;2023-03-23T11:53:50;5.38;;;2.00;;
56429;SDS011;42332;52.136;20.666;2023-03-23T11:58:59;5.90;;;2.50;;
56429;SDS011;42332;52.136;20.666;2023-03-23T12:24:08;7.55;;;2.92;;
56429;SDS011;42332;52.136;20.666;2023-03-23T12:26:50;7.38;;;2.60;;
56429;SDS011;42332;52.136;20.666;2023-03-23T12:44:02;7.97;;;3.30;;
56429;SDS011;42332;52.136;20.666;2023-03-23T12:46:41;7.63;;;2.92;;
56429;SDS011;42332;52.136;20.666;2023-03-23T12:49:29;8.43;;;3.28;;
56429;SDS011;42332;52.136;20.666;2023-03-23T12:52:03;7.90;;;3.10;;
56429;SDS011;42332;52.136;20.666;2023-03-23T12:57:12;5.80;;;2.63;;
56429;SDS011;42332;52.136;20.666;2023-03-23T12:59:43;7.93;;;2.83;;
56429;SDS011;42332;52.136;20.666;2023-03-23T13:02:19;9.18;;;3.45;;
56429;SDS011;42332;52.136;20.666;2023-03-23T13:04:49;7.75;;;2.60;;
56429;SDS011;42332;52.136;20.666;2023-03-23T13:07:18;10.85;;;3.63;;
56429;SDS011;42332;52.136;20.666;2023-03-23T13:09:52;6.35;;;2.70;;
56429;SDS011;42332;52.136;20.666;2023-03-23T13:12:29;7.53;;;2.70;;
56429;SDS011;42332;52.136;20.666;2023-03-23T13:14:58;8.30;;;2.60;;
56429;SDS011;42332;52.136;20.666;2023-03-23T13:22:58;7.70;;;2.00;;
56429;SDS011;42332;52.136;20.666;2023-03-23T13:31:19;7.40;;;2.17;;
56429;SDS011;42332;52.136;20.666;2023-03-23T13:33:50;6.78;;;2.30;;
56429;SDS011;42332;52.136;20.666;2023-03-23T13:36:19;10.68;;;2.33;;
56429;SDS011;42332;52.136;20.666;2023-03-23T13:38:51;8.98;;;2.25;;
56429;SDS011;42332;52.136;20.666;2023-03-23T13:41:18;5.32;;;2.42;;
56429;SDS011;42332;52.136;20.666;2023-03-23T13:43:45;11.10;;;2.50;;
56429;SDS011;42332;52.136;20.666;2023-03-23T13:46:27;11.50;;;3.08;;
56429;SDS011;42332;52.136;20.666;2023-03-23T13:54:31;6.85;;;2.83;;
56429;SDS011;42332;52.136;20.666;2023-03-23T13:57:00;7.25;;;2.28;;
56429;SDS011;42332;52.136;20.666;2023-03-23T13:59:29;5.65;;;2.38;;
56429;SDS011;42332;52.136;20.666;2023-03-23T14:02:26;7.20;;;3.17;;
56429;SDS011;42332;52.136;20.666;2023-03-23T14:04:55;6.07;;;2.55;;
56429;SDS011;42332;52.136;20.666;2023-03-23T14:07:21;7.95;;;2.78;;
56429;SDS011;42332;52.136;20.666;2023-03-23T14:09:49;5.57;;;2.33;;
56429;SDS011;42332;52.136;20.666;2023-03-23T14:12:17;12.23;;;3.30;;
56429;SDS011;42332;52.136;20.666;2023-03-23T14:14:45;6.60;;;2.40;;
56429;SDS011;42332;52.136;20.666;2023-03-23T14:19:54;5.30;;;2.72;;
56429;SDS011;42332;52.136;20.666;2023-03-23T14:24:50;7.07;;;2.88;;
56429;SDS011;42332;52.136;20.666;2023-03-23T14:27:17;7.30;;;2.70;;
56429;SDS011;42332;52.136;20.666;2023-03-23T14:29:46;8.27;;;3.25;;
56429;SDS011;42332;52.136;20.666;2023-03-23T14:32:27;6.45;;;2.60;;
56429;SDS011;42332;52.136;20.666;2023-03-23T14:34:53;6.60;;;3.20;;
56429;SDS011;42332;52.136;20.666;2023-03-23T14:37:18;8.73;;;2.83;;
56429;SDS011;42332;52.136;20.666;2023-03-23T14:39:46;4.78;;;2.03;;
56429;SDS011;42332;52.136;20.666;2023-03-23T14:42:14;7.28;;;3.22;;
56429;SDS011;42332;52.136;20.666;2023-03-23T14:44:43;16.98;;;3.00;;
56429;SDS011;42332;52.136;20.666;2023-03-23T14:47:16;8.80;;;3.60;;
56429;SDS011;42332;52.136;20.666;2023-03-23T14:54:36;8.60;;;3.58;;
56429;SDS011;42332;52.136;20.666;2023-03-23T14:57:10;10.32;;;3.65;;
56429;SDS011;42332;52.136;20.666;2023-03-23T14:59:39;5.90;;;2.40;;
56429;SDS011;42332;52.136;20.666;2023-03-23T15:02:05;11.13;;;3.63;;
56429;SDS011;42332;52.136;20.666;2023-03-23T15:04:36;9.32;;;3.70;;
56429;SDS011;42332;52.136;20.666;2023-03-23T15:07:03;10.88;;;3.75;;
56429;SDS011;42332;52.136;20.666;2023-03-23T15:09:30;14.85;;;3.78;;
56429;SDS011;42332;52.136;20.666;2023-03-23T15:11:56;9.32;;;3.55;;
56429;SDS011;42332;52.136;20.666;2023-03-23T15:14:26;10.55;;;3.55;;
56429;SDS011;42332;52.136;20.666;2023-03-23T15:16:54;14.10;;;4.07;;
56429;SDS011;42332;52.136;20.666;2023-03-23T15:19:23;10.95;;;3.45;;
56429;SDS011;42332;52.136;20.666;2023-03-23T15:21:55;9.68;;;4.13;;
56429;SDS011;42332;52.136;20.666;2023-03-23T15:24:26;7.88;;;3.75;;
56429;SDS011;42332;52.136;20.666;2023-03-23T15:27:13;12.18;;;4.38;;
56429;SDS011;42332;52.136;20.666;2023-03-23T15:29:55;12.48;;;4.72;;
56429;SDS011;42332;52.136;20.666;2023-03-23T15:32:26;13.20;;;4.53;;
56429;SDS011;42332;52.136;20.666;2023-03-23T15:34:53;14.43;;;4.82;;
56429;SDS011;42332;52.136;20.666;2023-03-23T15:37:21;10.95;;;4.53;;
56429;SDS011;42332;52.136;20.666;2023-03-23T15:39:47;15.38;;;4.60;;
56429;SDS011;42332;52.136;20.666;2023-03-23T15:42:23;10.07;;;4.43;;
56429;SDS011;42332;52.136;20.666;2023-03-23T15:44:58;14.32;;;5.20;;
56429;SDS011;42332;52.136;20.666;2023-03-23T15:52:41;15.43;;;5.93;;
56429;SDS011;42332;52.136;20.666;2023-03-23T15:55:27;16.08;;;6.53;;
56429;SDS011;42332;52.136;20.666;2023-03-23T15:57:54;17.33;;;6.63;;
56429;SDS011;42332;52.136;20.666;2023-03-23T16:00:22;14.65;;;6.53;;
56429;SDS011;42332;52.136;20.666;2023-03-23T16:02:55;13.73;;;6.00;;
56429;SDS011;42332;52.136;20.666;2023-03-23T16:05:22;12.43;;;5.68;;
56429;SDS011;42332;52.136;20.666;2023-03-23T16:07:48;9.82;;;4.20;;
56429;SDS011;42332;52.136;20.666;2023-03-23T16:10:15;8.70;;;4.53;;
56429;SDS011;42332;52.136;20.666;2023-03-23T16:12:42;11.30;;;4.55;;
56429;SDS011;42332;52.136;20.666;2023-03-23T16:15:07;10.07;;;4.07;;
56429;SDS011;42332;52.136;20.666;2023-03-23T16:17:33;12.40;;;4.47;;
56429;SDS011;42332;52.136;20.666;2023-03-23T16:19:59;10.60;;;4.45;;
56429;SDS011;42332;52.136;20.666;2023-03-23T16:22:24;10.07;;;4.50;;
56429;SDS011;42332;52.136;20.666;2023-03-23T16:24:49;15.02;;;5.15;;
56429;SDS011;42332;52.136;20.666;2023-03-23T16:27:15;10.52;;;4.70;;
56429;SDS011;42332;52.136;20.666;2023-03-23T16:29:41;10.70;;;4.90;;
56429;SDS011;42332;52.136;20.666;2023-03-23T16:32:06;25.40;;;11.10;;
56429;SDS011;42332;52.136;20.666;2023-03-23T16:34:32;15.20;;;7.28;;
56429;SDS011;42332;52.136;20.666;2023-03-23T16:36:59;20.80;;;9.70;;
56429;SDS011;42332;52.136;20.666;2023-03-23T16:39:25;16.65;;;7.43;;
56429;SDS011;42332;52.136;20.666;2023-03-23T16:41:50;19.55;;;7.75;;